Time;durP1;ratioP1;P1;durP2;ratioP2;P2;SDS_P1;SDS_P2;PMS_P1;PMS_P2;Temp;Humidity;BMP_temperature;BMP_pressure;BME280_temperature;BME280_humidity;BME280_pressure;Samples;Min_cycle;Max_cycle;Signal;HPM_P1;HPM_P2
2023/05/01 00:00:50;;;;;;;3.72;0.85;;;;;;;10.12;100.00;97564.28;5110939;28;20024;-83
2023/05/01 00:03:32;;;;;;;2.13;1.20;;;;;;;10.01;100.00;97556.06;5093884;28;20035;-81
2023/05/01 00:06:06;;;;;;;0.88;0.88;;;;;;;10.05;100.00;97570.97;5101555;28;20453;-83
2023/05/01 00:08:32;;;;;;;1.17;0.85;;;;;;;9.92;100.00;97577.97;5094235;28;20119;-81
2023/05/01 00:11:04;;;;;;;0.57;0.55;;;;;;;10.02;100.00;97608.56;5110174;28;20107;-81
2023/05/01 00:13:30;;;;;;;;;;;;;;;10.02;100.00;97603.22;5093700;28;20029;-81
2023/05/01 00:15:56;;;;;;;0.75;0.75;;;;;;;9.89;100.00;97598.66;5093458;28;19943;-81
2023/05/01 00:18:21;;;;;;;0.73;0.73;;;;;;;9.90;100.00;97608.41;5093645;28;20114;-81
2023/05/01 00:20:48;;;;;;;0.65;0.63;;;;;;;9.90;100.00;97617.31;5093927;28;20042;-81
2023/05/01 00:23:13;;;;;;;0.80;0.70;;;;;;;9.85;100.00;97608.66;5097687;28;20034;-81
2023/05/01 00:25:39;;;;;;;0.77;0.77;;;;;;;9.78;100.00;97612.66;5097395;28;20032;-81
2023/05/01 00:28:05;;;;;;;1.63;0.55;;;;;;;9.81;100.00;97607.16;5114271;28;20039;-80
2023/05/01 00:30:34;;;;;;;1.42;1.33;;;;;;;9.79;100.00;97609.03;5114108;28;20057;-80
2023/05/01 00:33:00;;;;;;;1.08;0.90;;;;;;;9.84;100.00;97614.97;5114136;28;20126;-80
2023/05/01 00:35:26;;;;;;;1.15;0.85;;;;;;;9.80;100.00;97616.09;5114245;28;20019;-80
2023/05/01 00:37:52;;;;;;;1.63;0.95;;;;;;;9.78;100.00;97618.00;5097110;28;20020;-80
2023/05/01 00:40:18;;;;;;;1.77;1.25;;;;;;;9.77;100.00;97618.94;5097182;28;20043;-80
2023/05/01 00:42:43;;;;;;;0.57;0.57;;;;;;;9.78;100.00;97618.00;5097430;28;20030;-81
2023/05/01 00:45:09;;;;;;;1.80;1.30;;;;;;;9.75;100.00;97631.53;5113815;28;20027;-80
2023/05/01 00:47:35;;;;;;;1.27;1.10;;;;;;;9.73;100.00;97620.94;5096915;28;20102;-80
2023/05/01 00:50:01;;;;;;;0.65;0.45;;;;;;;9.75;100.00;97634.22;5114242;28;20043;-80
2023/05/01 00:52:27;;;;;;;1.77;0.80;;;;;;;9.66;100.00;97632.91;5113798;28;20398;-80
2023/05/01 00:54:53;;;;;;;1.30;0.60;;;;;;;9.62;100.00;97638.53;5096917;28;20110;-80
2023/05/01 00:57:19;;;;;;;0.82;0.82;;;;;;;9.60;100.00;97637.72;5097371;28;20111;-81
2023/05/01 00:59:45;;;;;;;0.50;0.50;;;;;;;9.55;100.00;97632.66;5113913;28;20030;-81
2023/05/01 01:02:11;;;;;;;1.33;0.95;;;;;;;9.47;100.00;97626.03;5113762;28;20012;-81
2023/05/01 01:04:38;;;;;;;0.60;0.60;;;;;;;9.39;100.00;97625.59;5097162;28;20411;-81
2023/05/01 01:07:11;;;;;;;1.17;1.00;;;;;;;9.33;100.00;97631.28;5113781;28;20399;-80
2023/05/01 01:09:39;;;;;;;;;;;;;;;9.33;100.00;97645.47;5097190;28;20023;-81
2023/05/01 01:12:26;;;;;;;1.13;0.82;;;;;;;9.14;100.00;97628.75;5112997;28;19918;-81
2023/05/01 01:15:13;;;;;;;1.83;0.85;;;;;;;9.16;100.00;97646.44;5111958;28;20028;-80
2023/05/01 01:18:17;;;;;;;4.45;1.13;;;;;;;9.19;100.00;97651.59;5092322;28;20028;-80
2023/05/01 01:20:51;;;;;;;0.63;0.63;;;;;;;9.17;100.00;97652.59;5112639;28;20030;-80
2023/05/01 01:23:32;;;;;;;2.30;1.35;;;;;;;9.18;100.00;97655.19;5113821;28;20029;-81
2023/05/01 01:26:03;;;;;;;0.73;0.73;;;;;;;9.17;100.00;97655.28;5113549;28;20035;-80
2023/05/01 01:28:53;;;;;;;1.23;0.80;;;;;;;9.08;100.00;97655.78;5113139;28;20575;-81
2023/05/01 01:31:49;;;;;;;1.27;1.08;;;;;;;9.09;100.00;97658.38;5111948;28;20443;-80
2023/05/01 01:34:26;;;;;;;2.35;1.35;;;;;;;8.97;100.00;97652.84;5112192;28;20031;-80
2023/05/01 01:36:57;;;;;;;0.75;0.73;;;;;;;9.01;100.00;97657.06;5093846;28;20070;-80
2023/05/01 01:39:35;;;;;;;0.88;0.77;;;;;;;8.95;100.00;97652.91;5094720;28;20028;-82
2023/05/01 01:42:07;;;;;;;2.60;1.48;;;;;;;8.90;100.00;97654.09;5096060;28;20022;-80
2023/05/01 01:44:37;;;;;;;1.65;1.15;;;;;;;8.88;100.00;97662.19;5095769;28;20027;-80
2023/05/01 01:47:06;;;;;;;1.35;0.55;;;;;;;8.89;100.00;97653.22;5113204;28;20111;-81
2023/05/01 01:49:31;;;;;;;0.93;0.45;;;;;;;8.90;100.00;97654.09;5112803;28;20398;-80
2023/05/01 01:51:58;;;;;;;1.10;1.00;;;;;;;8.83;100.00;97656.22;5095770;28;20019;-80
2023/05/01 01:54:37;;;;;;;0.90;0.75;;;;;;;8.69;100.00;97648.97;5096111;28;20046;-80
2023/05/01 01:57:04;;;;;;;1.52;1.00;;;;;;;8.82;100.00;97656.31;5094002;28;20024;-80
2023/05/01 01:59:31;;;;;;;0.88;0.65;;;;;;;8.85;100.00;97662.38;5113283;28;20526;-80
2023/05/01 02:01:57;;;;;;;2.05;1.38;;;;;;;8.76;100.00;97653.97;5087576;28;20483;-80
2023/05/01 02:04:25;;;;;;;0.20;0.20;;;;;;;8.69;100.00;97656.97;5095361;28;20023;-79
2023/05/01 02:06:51;;;;;;;1.02;0.93;;;;;;;8.76;100.00;97657.53;5112230;28;20031;-80
2023/05/01 02:09:18;;;;;;;1.30;0.82;;;;;;;8.66;100.00;97648.28;5095255;28;20034;-80
2023/05/01 02:11:45;;;;;;;1.20;1.10;;;;;;;8.63;100.00;97648.44;5095256;28;20015;-80
2023/05/01 02:14:12;;;;;;;1.33;0.40;;;;;;;8.60;100.00;97651.25;5112615;28;20043;-80
2023/05/01 02:16:39;;;;;;;2.15;1.02;;;;;;;8.60;100.00;97641.47;5095052;28;20344;-79
2023/05/01 02:19:05;;;;;;;1.55;1.17;;;;;;;8.65;100.00;97649.19;5095438;28;20035;-80
2023/05/01 02:21:33;;;;;;;1.27;1.10;;;;;;;8.63;100.00;97654.63;5111970;28;20024;-80
2023/05/01 02:24:00;;;;;;;2.47;0.95;;;;;;;8.53;100.00;97660.50;5095020;28;20487;-79
2023/05/01 02:26:28;;;;;;;1.48;0.88;;;;;;;8.58;100.00;97658.50;5111985;28;20402;-80
2023/05/01 02:28:53;;;;;;;3.55;0.85;;;;;;;8.60;100.00;97643.25;5094643;28;20053;-80
2023/05/01 02:31:20;;;;;;;0.88;0.77;;;;;;;8.64;100.00;97653.66;5094702;28;20095;-80
2023/05/01 02:33:45;;;;;;;0.43;0.43;;;;;;;8.60;100.00;97651.25;5092230;28;20093;-80
2023/05/01 02:36:12;;;;;;;2.83;1.17;;;;;;;8.55;100.00;97654.16;5112179;28;20027;-80
2023/05/01 02:38:37;;;;;;;1.67;1.13;;;;;;;8.59;100.00;97645.06;5094718;28;20023;-80
2023/05/01 02:41:03;;;;;;;1.05;1.02;;;;;;;8.63;100.00;97656.44;5094562;28;20581;-80
2023/05/01 02:43:31;;;;;;;3.10;1.73;;;;;;;8.56;100.00;97660.34;5111099;28;20076;-80
2023/05/01 02:45:57;;;;;;;3.03;2.15;;;;;;;8.58;100.00;97655.81;5094467;28;20034;-80
2023/05/01 02:48:26;;;;;;;0.50;0.50;;;;;;;8.60;100.00;97662.78;5094959;28;20406;-80
2023/05/01 02:50:54;;;;;;;2.28;1.63;;;;;;;8.52;100.00;97667.66;5109396;28;20153;-80
2023/05/01 02:53:21;;;;;;;0.43;0.43;;;;;;;8.44;100.00;97663.66;5111680;28;20023;-80
2023/05/01 02:55:47;;;;;;;0.82;0.82;;;;;;;8.37;100.00;97664.91;5111438;28;20055;-80
2023/05/01 02:58:17;;;;;;;3.47;1.08;;;;;;;8.34;100.00;97667.72;5088832;28;20921;-80
2023/05/01 03:00:43;;;;;;;0.75;0.63;;;;;;;8.31;100.00;97671.41;5094231;28;20027;-80
2023/05/01 03:03:09;;;;;;;0.88;0.80;;;;;;;8.34;100.00;97675.72;5094182;28;20035;-80
2023/05/01 03:05:35;;;;;;;0.63;0.63;;;;;;;8.35;100.00;97677.47;5094422;28;20032;-79
2023/05/01 03:08:00;;;;;;;0.30;0.30;;;;;;;8.33;100.00;97682.88;5112142;28;20085;-80
2023/05/01 03:10:26;;;;;;;0.68;0.68;;;;;;;8.31;100.00;97673.22;5112093;28;20032;-81
2023/05/01 03:12:51;;;;;;;2.03;0.75;;;;;;;8.39;100.00;97687.91;5112009;28;20031;-83
2023/05/01 03:15:17;;;;;;;0.73;0.73;;;;;;;8.47;100.00;97693.69;5111175;28;20035;-81
2023/05/01 03:17:43;;;;;;;0.63;0.60;;;;;;;8.50;100.00;97698.84;5094584;28;20027;-84
2023/05/01 03:20:09;;;;;;;0.43;0.43;;;;;;;8.43;100.00;97693.94;5094380;28;20019;-84
2023/05/01 03:22:35;;;;;;;1.45;0.90;;;;;;;8.47;100.00;97692.81;5111853;28;20043;-84
2023/05/01 03:25:03;;;;;;;0.82;0.82;;;;;;;8.54;100.00;97704.91;5111714;28;20115;-83
2023/05/01 03:27:29;;;;;;;1.60;1.20;;;;;;;8.63;100.00;97704.44;5094221;28;20019;-83
2023/05/01 03:29:55;;;;;;;1.55;1.10;;;;;;;8.69;100.00;97712.97;5094379;28;20047;-84
2023/05/01 03:32:21;;;;;;;0.85;0.63;;;;;;;8.73;100.00;97715.47;5110385;28;20024;-83
2023/05/01 03:34:48;;;;;;;1.27;0.60;;;;;;;8.85;100.00;97728.19;5094715;28;20130;-84
2023/05/01 03:37:14;;;;;;;1.20;1.10;;;;;;;8.88;100.00;97722.69;5094006;28;20107;-84
2023/05/01 03:39:40;;;;;;;1.05;0.95;;;;;;;8.86;100.00;97720.06;5094698;28;20039;-84
2023/05/01 03:42:06;;;;;;;0.95;0.93;;;;;;;8.92;100.00;97719.75;5088824;28;20081;-82
2023/05/01 03:44:31;;;;;;;2.47;1.20;;;;;;;8.96;100.00;97718.66;5094361;28;20035;-83
2023/05/01 03:46:57;;;;;;;9.70;1.02;;;;;;;8.93;100.00;97716.16;5111070;28;20548;-81
2023/05/01 03:49:23;;;;;;;2.30;2.00;;;;;;;8.91;100.00;97726.06;5094213;28;20035;-80
2023/05/01 03:51:48;;;;;;;2.03;1.23;;;;;;;8.88;100.00;97725.34;5108643;28;20080;-81
2023/05/01 03:54:14;;;;;;;2.72;1.83;;;;;;;8.92;100.00;97733.09;5092231;28;20096;-80
2023/05/01 03:56:39;;;;;;;2.75;2.28;;;;;;;8.93;100.00;97739.28;5092578;28;20039;-81
2023/05/01 03:59:05;;;;;;;2.88;2.00;;;;;;;8.93;100.00;97739.28;5110602;28;20043;-82
2023/05/01 04:01:32;;;;;;;2.38;1.67;;;;;;;9.02;100.00;97742.34;5110340;28;20024;-81
2023/05/01 04:03:58;;;;;;;1.80;1.70;;;;;;;9.06;100.00;97759.06;5109609;28;20126;-82
2023/05/01 04:06:24;;;;;;;3.17;1.40;;;;;;;9.09;100.00;97745.56;5093426;28;20055;-83
2023/05/01 04:08:50;;;;;;;2.15;1.33;;;;;;;9.17;100.00;97759.34;5110073;28;20031;-82
2023/05/01 04:11:15;;;;;;;1.38;1.27;;;;;;;9.25;100.00;97754.47;5107063;28;20032;-83
2023/05/01 04:13:41;;;;;;;4.60;2.58;;;;;;;9.30;100.00;97764.91;5093383;28;20023;-83
2023/05/01 04:16:07;;;;;;;1.65;1.55;;;;;;;9.41;100.00;97774.09;5110467;28;20840;-84
2023/05/01 04:18:32;;;;;;;2.03;1.83;;;;;;;9.37;100.00;97766.31;5110685;28;20031;-81
2023/05/01 04:20:58;;;;;;;4.72;3.55;;;;;;;9.38;100.00;97768.91;5110283;28;20616;-81
2023/05/01 04:23:23;;;;;;;8.00;2.47;;;;;;;9.51;100.00;97775.28;5092879;28;20106;-80
2023/05/01 04:25:48;;;;;;;1.67;1.50;;;;;;;9.44;100.00;97773.06;5093239;28;20032;-82
2023/05/01 04:28:14;;;;;;;9.02;3.38;;;;;;;9.36;100.00;97769.91;5109841;28;20023;-78
2023/05/01 04:30:40;;;;;;;6.72;1.92;;;;;;;9.40;100.00;97767.00;5109439;28;20038;-79
2023/05/01 04:33:10;;;;;;;2.35;2.15;;;;;;;9.41;100.00;97768.75;5092817;28;20042;-80
2023/05/01 04:35:39;;;;;;;8.77;0.98;;;;;;;9.43;100.00;97760.63;5093634;28;20054;-79
2023/05/01 04:38:05;;;;;;;10.45;5.28;;;;;;;9.46;100.00;97755.13;5109726;28;20027;-81
2023/05/01 04:40:31;;;;;;;7.47;1.95;;;;;;;9.50;100.00;97764.72;5109638;28;20031;-81
2023/05/01 04:42:56;;;;;;;1.17;1.08;;;;;;;9.46;100.00;97760.47;5093004;28;20023;-80
2023/05/01 04:45:22;;;;;;;1.40;1.23;;;;;;;9.48;100.00;97763.91;5093048;28;20468;-81
2023/05/01 04:47:47;;;;;;;2.65;1.52;;;;;;;9.47;100.00;97756.88;5110178;28;20475;-81
2023/05/01 04:50:17;;;;;;;0.68;0.68;;;;;;;9.41;100.00;97759.88;5093246;28;20024;-81
2023/05/01 04:52:45;;;;;;;5.65;3.60;;;;;;;9.50;100.00;97760.25;5093174;28;20048;-81
2023/05/01 04:55:17;;;;;;;5.65;3.22;;;;;;;9.69;100.00;97765.44;5093173;28;20097;-80
2023/05/01 04:57:43;;;;;;;1.95;1.75;;;;;;;9.58;100.00;97757.13;5093403;28;20154;-81
2023/05/01 05:00:17;;;;;;;0.73;0.60;;;;;;;9.60;100.00;97755.22;5110116;28;20044;-82
2023/05/01 05:02:52;;;;;;;1.63;1.33;;;;;;;9.47;100.00;97740.84;5089367;28;20039;-82
2023/05/01 05:05:51;;;;;;;1.15;1.10;;;;;;;9.45;100.00;97745.38;5105121;28;20027;-82
2023/05/01 05:08:35;;;;;;;2.38;2.00;;;;;;;9.77;100.00;97755.19;5095560;28;20032;-81
2023/05/01 05:11:01;;;;;;;1.25;0.80;;;;;;;10.02;100.00;97776.91;5093970;28;20028;-81
2023/05/01 05:16:15;;;;;;;1.52;1.05;;;;;;;10.25;100.00;97767.63;5109591;28;20040;-80
2023/05/01 05:18:51;;;;;;;0.68;0.68;;;;;;;10.29;100.00;97758.47;5113358;28;20026;-80
2023/05/01 05:21:17;;;;;;;1.08;0.73;;;;;;;10.34;100.00;97749.22;5113411;28;20038;-80
2023/05/01 05:24:06;;;;;;;3.03;1.38;;;;;;;10.49;100.00;97743.97;5113520;28;20020;-79
2023/05/01 05:26:32;;;;;;;3.08;1.98;;;;;;;10.59;100.00;97727.28;5112660;28;20031;-80
2023/05/01 05:29:15;;;;;;;1.02;0.82;;;;;;;10.49;100.00;97714.56;5096102;28;20437;-80
2023/05/01 05:31:48;;;;;;;2.33;0.95;;;;;;;10.97;100.00;97714.28;5105487;28;20929;-82
2023/05/01 05:34:52;;;;;;;2.63;1.50;;;;;;;11.24;100.00;97717.94;5096493;28;20078;-81
2023/05/01 05:37:42;;;;;;;2.85;1.35;;;;;;;11.57;100.00;97703.38;5113035;28;20513;-82
2023/05/01 05:40:11;;;;;;;1.20;1.10;;;;;;;11.69;100.00;97670.47;5106240;28;20049;-82
2023/05/01 05:43:40;;;;;;;0.47;0.47;;;;;;;11.86;100.00;97656.84;5113559;28;20030;-82
2023/05/01 05:45:58;;;;;;;2.30;1.65;;;;;;;11.65;100.00;97642.16;5012318;28;20412;-82
2023/05/01 05:49:01;;;;;;;1.48;0.98;;;;;;;11.71;100.00;97631.06;5014769;28;20610;-81
2023/05/01 05:58:50;;;;;;;2.13;1.55;;;;;;;13.54;100.00;97596.81;4983288;28;20037;-82
2023/05/01 06:01:16;;;;;;;2.35;1.20;;;;;;;14.18;100.00;97606.31;5034747;28;20025;-82
2023/05/01 06:03:42;;;;;;;1.63;0.70;;;;;;;14.69;100.00;97608.75;5109773;28;20580;-81
2023/05/01 06:06:07;;;;;;;0.68;0.68;;;;;;;14.78;100.00;97613.41;5109982;28;20114;-79
2023/05/01 06:08:35;;;;;;;1.17;1.05;;;;;;;15.08;100.00;97597.53;5109846;28;20055;-79
2023/05/01 06:11:00;;;;;;;3.28;1.20;;;;;;;15.81;100.00;97607.84;5092966;28;20114;-80
2023/05/01 06:13:26;;;;;;;0.60;0.60;;;;;;;17.73;100.00;97577.59;5110272;28;20578;-80
2023/05/01 06:15:52;;;;;;;5.85;1.23;;;;;;;18.93;100.00;97526.59;5109868;28;20084;-80
2023/05/01 06:18:17;;;;;;;1.08;0.98;;;;;;;19.84;100.00;97545.59;5092527;28;20039;-81
2023/05/01 06:20:43;;;;;;;0.73;0.52;;;;;;;20.58;91.46;97523.59;5092343;28;20024;-78
2023/05/01 06:23:09;;;;;;;1.10;0.47;;;;;;;21.01;87.39;97515.41;5092757;28;20526;-80
2023/05/01 06:25:35;;;;;;;0.73;0.73;;;;;;;21.79;82.18;97494.38;5092371;28;20091;-80
2023/05/01 06:28:01;;;;;;;0.85;0.40;;;;;;;21.50;81.41;97492.06;5109129;28;20160;-80
2023/05/01 06:30:26;;;;;;;1.65;0.65;;;;;;;21.96;79.27;97495.31;5111207;28;20038;-80
2023/05/01 06:32:52;;;;;;;1.45;1.02;;;;;;;22.93;77.02;97506.28;5109152;28;20031;-80
2023/05/01 06:35:18;;;;;;;1.55;0.98;;;;;;;21.85;79.66;97477.38;5109933;28;20088;-80
2023/05/01 06:37:43;;;;;;;3.30;2.10;;;;;;;22.55;78.04;97495.00;5111111;28;20027;-80
2023/05/01 06:40:09;;;;;;;2.42;1.50;;;;;;;23.31;73.01;97489.13;5109050;28;20036;-80
2023/05/01 06:42:38;;;;;;;8.45;1.90;;;;;;;24.23;65.78;97491.97;5092311;28;20027;-79
2023/05/01 06:45:06;;;;;;;1.05;0.95;;;;;;;23.59;63.10;97487.69;5091844;28;20020;-80
2023/05/01 06:47:31;;;;;;;0.77;0.77;;;;;;;22.44;73.22;97494.50;5109100;28;20110;-79
2023/05/01 06:49:57;;;;;;;1.42;0.85;;;;;;;23.04;72.84;97516.84;5109154;28;20106;-79
2023/05/01 06:52:24;;;;;;;0.82;0.75;;;;;;;23.77;67.88;97522.09;5109249;28;20031;-79
2023/05/01 06:54:49;;;;;;;0.73;0.68;;;;;;;23.84;66.55;97515.72;5109667;28;20031;-79
2023/05/01 06:57:15;;;;;;;2.90;1.60;;;;;;;23.99;67.05;97513.09;5092686;28;20502;-80
2023/05/01 06:59:40;;;;;;;0.63;0.60;;;;;;;24.66;65.76;97528.72;5092595;28;20495;-79
2023/05/01 07:02:06;;;;;;;0.50;0.50;;;;;;;24.23;60.47;97512.97;5091473;28;20110;-79
2023/05/01 07:04:31;;;;;;;1.00;0.98;;;;;;;25.02;60.17;97515.25;5108529;28;20020;-80
2023/05/01 07:06:57;;;;;;;1.60;1.50;;;;;;;25.26;59.33;97525.09;5108661;28;20020;-78
2023/05/01 07:09:22;;;;;;;2.90;1.85;;;;;;;25.30;59.13;97526.44;5108389;28;20058;-79
2023/05/01 07:11:48;;;;;;;1.25;0.85;;;;;;;25.55;56.53;97516.09;5108160;28;20120;-80
2023/05/01 07:14:14;;;;;;;8.70;4.47;;;;;;;25.19;58.59;97525.03;5109812;28;20522;-80
2023/05/01 07:16:40;;;;;;;1.55;0.93;;;;;;;24.96;58.37;97521.47;5108200;28;20059;-78
2023/05/01 07:19:05;;;;;;;1.48;1.05;;;;;;;25.27;58.39;97538.63;5091172;28;20042;-79
2023/05/01 07:21:31;;;;;;;0.60;0.60;;;;;;;24.83;59.63;97526.72;5108244;28;20034;-79
2023/05/01 07:23:57;;;;;;;0.50;0.50;;;;;;;23.63;65.74;97531.88;5090865;28;20073;-79
2023/05/01 07:26:25;;;;;;;0.77;0.77;;;;;;;22.90;63.65;97518.38;5107649;28;20019;-80
2023/05/01 07:28:51;;;;;;;2.72;1.13;;;;;;;23.95;66.52;97556.31;5090691;28;20138;-79
2023/05/01 07:31:16;;;;;;;2.35;0.98;;;;;;;24.94;59.56;97555.53;5106190;28;20114;-80
2023/05/01 07:33:42;;;;;;;0.57;0.52;;;;;;;25.75;55.95;97539.13;5107966;28;20023;-80
2023/05/01 07:36:08;;;;;;;1.23;0.95;;;;;;;26.03;52.73;97523.69;5109655;28;20027;-79
2023/05/01 07:38:33;;;;;;;1.40;0.75;;;;;;;25.75;50.91;97498.88;5108325;28;20453;-79
2023/05/01 07:40:59;;;;;;;0.80;0.68;;;;;;;26.69;50.16;97527.19;5109049;28;20089;-79
2023/05/01 07:43:24;;;;;;;0.45;0.40;;;;;;;27.44;48.80;97531.03;5107689;28;20078;-80
2023/05/01 07:45:57;;;;;;;0.35;0.35;;;;;;;26.97;47.56;97502.53;5108028;28;20682;-79
2023/05/01 07:48:24;;;;;;;0.40;0.40;;;;;;;26.51;48.08;97510.31;5108184;28;20027;-81
2023/05/01 07:50:49;;;;;;;0.80;0.60;;;;;;;26.86;48.63;97523.13;5108054;28;20031;-81
2023/05/01 07:53:15;;;;;;;7.15;1.27;;;;;;;27.32;47.83;97515.28;5091779;28;20043;-80
2023/05/01 07:55:40;;;;;;;2.50;1.40;;;;;;;27.48;47.08;97512.25;5109793;28;20020;-80
2023/05/01 07:58:06;;;;;;;0.60;0.60;;;;;;;28.62;45.29;97528.00;5093083;28;20098;-81
2023/05/01 08:00:31;;;;;;;1.50;0.90;;;;;;;28.54;43.92;97514.44;5110035;28;20063;-80
2023/05/01 08:02:57;;;;;;;4.65;1.90;;;;;;;27.79;46.14;97509.03;5093276;28;20024;-80
2023/05/01 08:05:23;;;;;;;0.52;0.52;;;;;;;28.32;44.90;97508.22;5111663;28;20020;-81
2023/05/01 08:07:48;;;;;;;0.43;0.32;;;;;;;27.39;45.35;97491.44;5112268;28;20467;-80
2023/05/01 08:10:14;;;;;;;9.10;1.17;;;;;;;26.63;48.87;97504.13;5110795;28;20028;-80
2023/05/01 08:12:40;;;;;;;0.30;0.30;;;;;;;26.63;48.87;97506.00;5093637;28;20155;-79
2023/05/01 08:15:06;;;;;;;0.60;0.60;;;;;;;26.00;49.16;97488.41;5093161;28;20038;-79
2023/05/01 08:17:31;;;;;;;5.07;2.35;;;;;;;25.26;51.04;97479.41;5111283;28;20423;-79
2023/05/01 08:19:59;;;;;;;2.90;0.68;;;;;;;25.15;54.43;97512.75;5109858;28;20062;-80
2023/05/01 08:22:24;;;;;;;0.75;0.65;;;;;;;26.71;50.11;97519.59;5110033;28;20054;-80
2023/05/01 08:24:50;;;;;;;9.63;4.53;;;;;;;27.98;47.10;97520.13;5110026;28;20066;-80
2023/05/01 08:27:16;;;;;;;7.50;4.80;;;;;;;27.67;45.27;97499.66;5110077;28;20088;-81
2023/05/01 08:29:41;;;;;;;12.30;5.00;;;;;;;27.99;44.93;97504.50;5092672;28;20056;-81
2023/05/01 08:32:07;;;;;;;4.28;3.78;;;;;;;29.31;41.19;97506.47;5092957;28;20032;-81
2023/05/01 08:34:32;;;;;;;5.90;4.00;;;;;;;29.35;40.14;97485.66;5111160;28;20019;-86
2023/05/01 08:36:58;;;;;;;6.35;4.68;;;;;;;28.47;43.01;97492.38;5092811;28;20039;-80
2023/05/01 08:39:24;;;;;;;4.82;4.15;;;;;;;28.74;42.24;97496.06;5104630;28;20028;-79
2023/05/01 08:41:49;;;;;;;5.43;3.60;;;;;;;28.31;41.06;97467.16;5109988;28;20107;-81
2023/05/01 08:44:15;;;;;;;5.20;3.90;;;;;;;28.31;39.82;97459.75;5113197;28;20035;-81
2023/05/01 08:46:50;;;;;;;6.63;3.97;;;;;;;30.33;37.99;97490.00;5116561;27;20520;-81
2023/05/01 08:49:17;;;;;;;3.92;3.53;;;;;;;31.49;36.87;97496.88;5114788;28;20090;-81
2023/05/01 08:51:47;;;;;;;4.60;3.60;;;;;;;30.78;37.75;97481.69;5095142;28;20106;-80
2023/05/01 08:54:13;;;;;;;5.90;3.70;;;;;;;30.82;38.26;97460.84;5113212;28;20026;-80
2023/05/01 08:56:39;;;;;;;6.78;4.07;;;;;;;30.69;38.04;97466.47;5114169;28;20023;-80
2023/05/01 08:59:07;;;;;;;6.88;4.00;;;;;;;31.01;37.98;97459.88;5096448;28;20045;-80
2023/05/01 09:01:32;;;;;;;5.13;3.92;;;;;;;31.19;37.39;97470.13;5095324;28;20024;-82
2023/05/01 09:04:01;;;;;;;4.13;3.55;;;;;;;31.20;36.35;97453.28;5110950;28;20023;-82
2023/05/01 09:06:28;;;;;;;6.65;4.70;;;;;;;30.25;36.99;97415.75;5093991;28;20084;-82
2023/05/01 09:08:54;;;;;;;6.68;4.72;;;;;;;30.54;37.20;97437.25;5113275;28;20466;-81
2023/05/01 09:11:21;;;;;;;5.25;3.90;;;;;;;31.03;36.67;97441.97;5095167;28;20055;-82
2023/05/01 09:13:47;;;;;;;8.35;3.70;;;;;;;31.31;37.07;97438.72;5112051;28;20038;-80
2023/05/01 09:16:13;;;;;;;4.93;3.50;;;;;;;32.13;35.90;97435.44;5111027;28;20027;-79
2023/05/01 09:18:40;;;;;;;7.65;4.13;;;;;;;32.09;35.32;97425.06;5095625;28;20067;-80
2023/05/01 09:21:06;;;;;;;4.15;3.42;;;;;;;31.45;36.22;97428.34;5095639;28;20037;-79
2023/05/01 09:23:32;;;;;;;5.55;3.58;;;;;;;30.52;36.88;97399.84;5111850;28;20027;-78
2023/05/01 09:25:58;;;;;;;4.93;3.10;;;;;;;30.32;37.69;97422.06;5111017;28;20047;-79
2023/05/01 09:28:41;;;;;;;9.65;5.40;;;;;;;31.83;35.96;97448.38;5092999;28;20434;-80
2023/05/01 09:31:33;;;;;;;9.98;5.82;;;;;;;33.63;32.93;97453.50;5110231;28;20024;-79
2023/05/01 09:34:03;;;;;;;6.07;3.95;;;;;;;32.41;33.54;97392.44;5107366;28;20031;-80
2023/05/01 09:36:31;;;;;;;4.18;3.35;;;;;;;32.89;32.66;97414.47;5093060;28;20031;-81
2023/05/01 09:38:58;;;;;;;4.05;3.22;;;;;;;33.25;32.53;97415.13;5093618;28;20031;-81
2023/05/01 09:41:24;;;;;;;3.80;3.20;;;;;;;31.85;34.29;97378.94;5093216;28;20461;-79
2023/05/01 09:43:54;;;;;;;3.20;2.90;;;;;;;31.27;34.77;97373.91;5110275;28;20039;-80
2023/05/01 09:46:21;;;;;;;3.63;3.20;;;;;;;31.25;35.42;97389.03;5109754;28;20529;-80
2023/05/01 09:48:58;;;;;;;7.72;4.10;;;;;;;32.51;34.47;97421.28;5092865;28;20031;-80
2023/05/01 09:51:28;;;;;;;3.25;2.95;;;;;;;31.29;33.42;97346.84;5109920;28;20024;-81
2023/05/01 09:53:57;;;;;;;4.13;3.35;;;;;;;32.22;33.04;97394.44;5109281;28;20538;-82
2023/05/01 09:56:25;;;;;;;3.58;3.25;;;;;;;32.54;32.92;97383.94;5093425;28;20023;-80
2023/05/01 09:58:51;;;;;;;22.65;14.90;;;;;;;31.74;33.96;97371.44;5111103;28;20061;-84
2023/05/01 10:01:16;;;;;;;36.28;24.65;;;;;;;31.47;33.71;97365.38;5093186;28;20023;-83
2023/05/01 10:03:43;;;;;;;12.95;10.90;;;;;;;31.98;33.60;97373.25;5093697;28;20096;-84
2023/05/01 10:06:09;;;;;;;4.72;3.60;;;;;;;32.97;32.49;97389.19;5110499;28;20501;-82
2023/05/01 10:08:49;;;;;;;4.43;3.60;;;;;;;33.69;31.25;97391.47;5110052;28;20027;-81
2023/05/01 10:11:14;;;;;;;4.15;2.80;;;;;;;31.93;32.71;97342.66;5092882;28;20479;-80
2023/05/01 10:13:40;;;;;;;4.07;3.10;;;;;;;33.25;31.53;97387.41;5109165;28;20072;-79
2023/05/01 10:16:07;;;;;;;8.38;3.83;;;;;;;33.16;31.50;97354.75;5109835;28;20114;-79
2023/05/01 10:18:34;;;;;;;11.27;2.83;;;;;;;34.28;30.10;97397.69;5092184;28;20447;-80
2023/05/01 10:20:59;;;;;;;8.35;3.22;;;;;;;34.36;30.77;97374.22;5109584;28;20702;-75
2023/05/01 10:23:25;;;;;;;5.07;3.20;;;;;;;34.82;30.94;97385.91;5109462;28;20027;-76
2023/05/01 10:25:52;;;;;;;4.32;2.95;;;;;;;34.06;32.09;97371.66;5092532;28;20031;-80
2023/05/01 10:28:19;;;;;;;5.15;3.30;;;;;;;33.73;31.92;97345.47;5108955;28;20023;-81
2023/05/01 10:30:46;;;;;;;3.05;2.75;;;;;;;33.57;30.76;97325.94;5092343;28;20059;-75
2023/05/01 10:33:12;;;;;;;3.55;2.80;;;;;;;33.04;31.29;97312.31;5111713;28;20054;-77
2023/05/01 10:35:39;;;;;;;4.75;2.78;;;;;;;33.65;31.13;97345.88;5109248;28;20425;-77
2023/05/01 10:38:08;;;;;;;3.60;2.50;;;;;;;34.56;33.35;97392.09;5092742;28;20024;-80
2023/05/01 10:40:43;;;;;;;7.47;2.50;;;;;;;34.12;30.59;97324.34;5092915;28;20023;-77
2023/05/01 10:43:18;;;;;;;3.42;2.75;;;;;;;34.23;30.09;97351.22;5110070;28;20483;-75
2023/05/01 10:45:45;;;;;;;3.45;3.00;;;;;;;30.34;33.09;97221.16;5108923;28;20501;-79
2023/05/01 10:48:11;;;;;;;8.93;3.25;;;;;;;29.00;35.86;97299.63;5092498;28;20106;-78
2023/05/01 10:51:06;;;;;;;4.95;2.85;;;;;;;28.23;36.94;97294.00;5091080;28;20189;-78
2023/05/01 10:53:31;;;;;;;3.97;2.95;;;;;;;26.81;39.26;97327.97;5100130;28;20036;-77
2023/05/01 10:55:57;;;;;;;6.55;2.90;;;;;;;26.65;40.63;97341.97;5092050;28;20068;-78
2023/05/01 10:58:38;;;;;;;3.67;2.72;;;;;;;27.87;39.14;97380.44;5092430;28;20034;-78
2023/05/01 11:01:29;;;;;;;3.33;2.92;;;;;;;30.20;37.37;97400.91;5109676;28;20119;-78
2023/05/01 11:03:56;;;;;;;4.13;3.30;;;;;;;31.87;36.33;97398.97;5091164;28;20032;-78
2023/05/01 11:06:22;;;;;;;8.07;3.53;;;;;;;33.75;32.60;97390.47;5091365;28;20665;-77
2023/05/01 11:08:48;;;;;;;4.57;2.88;;;;;;;31.87;31.79;97316.75;5091204;28;20019;-78
2023/05/01 11:11:22;;;;;;;9.45;3.17;;;;;;;29.87;34.22;97297.09;5091120;28;20020;-76
2023/05/01 11:14:00;;;;;;;10.05;3.10;;;;;;;28.00;36.24;97294.38;5107562;28;20058;-78
2023/05/01 11:16:38;;;;;;;5.72;2.83;;;;;;;27.39;38.12;97330.16;5108097;28;20019;-77
2023/05/01 11:19:04;;;;;;;8.52;5.15;;;;;;;27.86;37.88;97337.53;5107715;28;20096;-77
2023/05/01 11:21:32;;;;;;;5.35;2.70;;;;;;;27.30;37.71;97338.78;5109616;28;20023;-78
2023/05/01 11:24:05;;;;;;;3.50;2.88;;;;;;;26.51;39.43;97337.47;5090853;28;20037;-78
2023/05/01 11:26:31;;;;;;;12.32;3.08;;;;;;;26.36;39.41;97337.56;5091043;28;20447;-77
2023/05/01 11:28:58;;;;;;;5.82;2.75;;;;;;;25.99;40.91;97343.31;5107616;28;20086;-77
2023/05/01 11:31:27;;;;;;;4.75;2.60;;;;;;;25.65;41.60;97349.50;5090976;28;20031;-78
2023/05/01 11:34:00;;;;;;;9.15;3.50;;;;;;;25.21;41.64;97338.63;5107586;28;20031;-78
2023/05/01 11:36:27;;;;;;;7.10;2.85;;;;;;;25.16;41.76;97346.56;5090666;28;20066;-78
2023/05/01 11:38:57;;;;;;;6.72;3.75;;;;;;;24.84;42.76;97353.28;5090666;28;20088;-78
2023/05/01 11:41:24;;;;;;;5.88;3.10;;;;;;;24.70;42.47;97346.72;5107905;28;20471;-80
2023/05/01 11:43:55;;;;;;;5.45;2.83;;;;;;;24.73;43.78;97357.28;5108065;28;20031;-79
2023/05/01 11:46:29;;;;;;;5.13;2.90;;;;;;;24.57;44.40;97351.16;5107681;28;20035;-78
2023/05/01 11:49:00;;;;;;;4.80;3.00;;;;;;;24.50;44.38;97352.94;5107518;28;20430;-78